Time;durP1;ratioP1;P1;durP2;ratioP2;P2;SDS_P1;SDS_P2;PMS_P1;PMS_P2;Temp;Humidity;BMP_temperature;BMP_pressure;BME280_temperature;BME280_humidity;BME280_pressure;Samples;Min_cycle;Max_cycle;Signal;HPM_P1;HPM_P2
2023/03/17 00:01:09;;;;;;;85.40;36.13;;;;;;;;;;4958898;28;20836;-73
2023/03/17 00:03:36;;;;;;;96.97;39.97;;;;;;;;;;4948193;28;20498;-73
2023/03/17 00:06:03;;;;;;;85.50;36.70;;;;;;;;;;4963367;28;20460;-74
2023/03/17 00:08:31;;;;;;;74.43;32.87;;;;;;;;;;4947874;28;23237;-74
2023/03/17 00:10:58;;;;;;;78.07;33.77;;;;;;;;;;4946211;28;21033;-74
2023/03/17 00:13:25;;;;;;;71.50;33.97;;;;;;;;;;4965293;28;20463;-74
2023/03/17 00:15:52;;;;;;;74.33;33.07;;;;;;;;;;4963649;28;20463;-73
2023/03/17 00:18:19;;;;;;;75.80;33.50;;;;;;;;;;4976000;28;20470;-72
2023/03/17 00:20:45;;;;;;;69.10;31.67;;;;;;;;;;4984220;28;20467;-74
2023/03/17 00:23:14;;;;;;;75.13;32.40;;;;;;;;;;4964705;28;20553;-73
2023/03/17 00:25:42;;;;;;;70.47;33.67;;;;;;;;;;4966214;28;20478;-74
2023/03/17 00:28:12;;;;;;;83.17;35.60;;;;;;;;;;4960181;28;214106;-73
2023/03/17 00:30:39;;;;;;;91.27;35.33;;;;;;;;;;4965008;28;20538;-73
2023/03/17 00:33:06;;;;;;;99.80;40.90;;;;;;;;;;4984006;28;20463;-74
2023/03/17 00:35:33;;;;;;;85.83;39.00;;;;;;;;;;4964564;28;20985;-74
2023/03/17 00:37:59;;;;;;;83.70;36.77;;;;;;;;;;4966080;28;21014;-74
2023/03/17 00:40:31;;;;;;;89.33;36.93;;;;;;;;;;4958357;28;20814;-74
2023/03/17 00:43:01;;;;;;;81.93;34.70;;;;;;;;;;4982005;28;20451;-73
2023/03/17 00:45:28;;;;;;;73.13;34.13;;;;;;;;;;4979830;28;20473;-73
2023/03/17 00:47:56;;;;;;;80.00;35.37;;;;;;;;;;4964497;28;20468;-74
2023/03/17 00:50:24;;;;;;;78.80;33.33;;;;;;;;;;4962045;28;20468;-73
2023/03/17 00:52:51;;;;;;;74.87;33.47;;;;;;;;;;4962539;28;20467;-74
2023/03/17 00:55:18;;;;;;;72.33;32.47;;;;;;;;;;4961659;28;20944;-74
2023/03/17 00:57:46;;;;;;;75.77;32.93;;;;;;;;;;4945703;28;20551;-73
2023/03/17 01:00:23;;;;;;;74.60;32.93;;;;;;;;;;4973745;28;20478;-74
2023/03/17 01:02:50;;;;;;;72.00;32.57;;;;;;;;;;4970349;28;20463;-74
2023/03/17 01:05:18;;;;;;;71.87;33.10;;;;;;;;;;4962259;28;20978;-74
2023/03/17 01:07:47;;;;;;;79.13;32.27;;;;;;;;;;4963367;28;20486;-74
2023/03/17 01:10:15;;;;;;;75.13;32.60;;;;;;;;;;4927990;28;20460;-74
2023/03/17 01:12:42;;;;;;;72.40;31.43;;;;;;;;;;4962656;28;20463;-73
2023/03/17 01:15:11;;;;;;;76.33;33.20;;;;;;;;;;4963209;28;20463;-73
2023/03/17 01:17:38;;;;;;;68.83;31.50;;;;;;;;;;4959198;28;20539;-74
2023/03/17 01:20:06;;;;;;;64.53;30.30;;;;;;;;;;4964173;28;22439;-74
2023/03/17 01:22:32;;;;;;;70.43;31.30;;;;;;;;;;4930106;28;21042;-73
2023/03/17 01:25:00;;;;;;;67.90;31.40;;;;;;;;;;4963729;28;20467;-74
2023/03/17 01:27:27;;;;;;;72.67;30.97;;;;;;;;;;4978498;28;20525;-74
2023/03/17 01:29:54;;;;;;;68.53;31.37;;;;;;;;;;4983766;28;20455;-74
2023/03/17 01:32:21;;;;;;;70.00;30.10;;;;;;;;;;4962624;28;20462;-74
2023/03/17 01:34:47;;;;;;;65.63;30.30;;;;;;;;;;4966035;28;20462;-74
2023/03/17 01:37:14;;;;;;;72.17;29.93;;;;;;;;;;4961311;28;20459;-76
2023/03/17 01:39:40;;;;;;;69.43;30.63;;;;;;;;;;4983587;28;20459;-74
2023/03/17 01:42:07;;;;;;;59.17;28.10;;;;;;;;;;4980193;28;20458;-74
2023/03/17 02:16:26;;;;;;;48.47;22.63;;;;;;;;;;4979399;28;20497;-74
2023/03/17 02:18:53;;;;;;;58.43;25.87;;;;;;;;;;4963639;28;20499;-74
2023/03/17 02:21:35;;;;;;;50.40;23.17;;;;;;;;;;4964652;28;20460;-74
2023/03/17 02:24:04;;;;;;;52.73;23.63;;;;;;;;;;4965171;28;20539;-74
2023/03/17 02:26:31;;;;;;;50.07;23.43;;;;;;;;;;4946505;28;20467;-74
2023/03/17 02:28:58;;;;;;;38.27;18.03;;;;;;;;;;4948630;28;20458;-74
2023/03/17 02:31:24;;;;;;;39.97;18.17;;;;;;;;;;4962475;28;20480;-74
2023/03/17 02:33:51;;;;;;;20.67;8.47;;;;;;;;;;4948626;28;20462;-74
2023/03/17 02:36:19;;;;;;;21.07;8.43;;;;;;;;;;4962735;28;20808;-74
2023/03/17 02:38:46;;;;;;;14.73;6.50;;;;;;;;;;4981247;28;20990;-75
2023/03/17 02:41:12;;;;;;;12.93;5.27;;;;;;;;;;4983378;28;20866;-74
2023/03/17 02:43:40;;;;;;;14.30;4.73;;;;;;;;;;4966977;28;21004;-74
2023/03/17 02:46:06;;;;;;;13.27;4.67;;;;;;;;;;4983336;28;21042;-74
2023/03/17 02:48:33;;;;;;;8.73;4.23;;;;;;;;;;4967286;28;20546;-74
2023/03/17 02:51:00;;;;;;;11.03;4.60;;;;;;;;;;4965843;28;20487;-74
2023/03/17 02:53:27;;;;;;;13.20;5.03;;;;;;;;;;4984460;28;21014;-74
2023/03/17 02:55:53;;;;;;;14.30;5.53;;;;;;;;;;4981608;28;20486;-75
2023/03/17 02:58:20;;;;;;;10.93;5.80;;;;;;;;;;4984813;28;20895;-74
2023/03/17 03:00:47;;;;;;;10.50;5.83;;;;;;;;;;4973085;28;20510;-74
2023/03/17 03:03:15;;;;;;;12.83;5.43;;;;;;;;;;4963206;28;20457;-75
2023/03/17 03:05:41;;;;;;;10.70;5.07;;;;;;;;;;4965183;28;20541;-74
2023/03/17 03:08:08;;;;;;;12.30;4.93;;;;;;;;;;4963069;28;20563;-74
2023/03/17 03:10:35;;;;;;;9.53;4.37;;;;;;;;;;4965160;28;20998;-75
2023/03/17 03:13:02;;;;;;;9.33;4.90;;;;;;;;;;4963512;28;21097;-75
2023/03/17 03:15:28;;;;;;;9.47;4.30;;;;;;;;;;4965442;28;20541;-74
2023/03/17 03:17:55;;;;;;;7.90;4.50;;;;;;;;;;4915364;28;1352517;-74
2023/03/17 03:20:21;;;;;;;14.40;4.83;;;;;;;;;;4966148;28;20221;-75
2023/03/17 03:22:48;;;;;;;12.50;4.17;;;;;;;;;;4963914;28;20472;-74
2023/03/17 03:25:15;;;;;;;9.83;4.73;;;;;;;;;;4965564;28;21217;-75
2023/03/17 03:27:42;;;;;;;10.10;4.17;;;;;;;;;;4964507;28;20551;-75
2023/03/17 03:30:09;;;;;;;9.73;4.27;;;;;;;;;;4965555;28;21042;-75
2023/03/17 03:32:36;;;;;;;12.35;4.60;;;;;;;;;;4963123;28;20433;-73
2023/03/17 03:35:03;;;;;;;9.73;4.43;;;;;;;;;;4965909;28;20423;-75
2023/03/17 03:37:30;;;;;;;8.80;4.27;;;;;;;;;;4946845;28;20452;-75
2023/03/17 03:39:56;;;;;;;11.00;4.50;;;;;;;;;;4965675;28;20464;-75
2023/03/17 03:42:23;;;;;;;9.17;4.10;;;;;;;;;;4979313;28;20466;-75
2023/03/17 03:44:50;;;;;;;11.67;4.80;;;;;;;;;;4984924;28;20479;-75
2023/03/17 03:47:16;;;;;;;13.40;5.03;;;;;;;;;;4983285;28;20232;-75
2023/03/17 03:49:43;;;;;;;11.43;4.73;;;;;;;;;;4985086;28;20938;-75
2023/03/17 03:52:27;;;;;;;12.43;5.70;;;;;;;;;;4982678;28;20875;-75
2023/03/17 03:54:53;;;;;;;12.33;6.37;;;;;;;;;;4984970;28;20525;-75
2023/03/17 03:57:20;;;;;;;14.43;5.50;;;;;;;;;;4983097;28;20477;-75
2023/03/17 03:59:47;;;;;;;9.67;5.77;;;;;;;;;;4984579;28;20459;-75
2023/03/17 04:02:13;;;;;;;12.70;5.97;;;;;;;;;;4981845;28;20451;-75
2023/03/17 04:04:41;;;;;;;16.17;5.97;;;;;;;;;;4979395;28;20466;-73
2023/03/17 04:07:08;;;;;;;11.20;5.60;;;;;;;;;;4950926;28;20528;-72
2023/03/17 04:09:35;;;;;;;15.10;5.93;;;;;;;;;;4979344;28;20482;-71
2023/03/17 04:12:02;;;;;;;12.37;5.17;;;;;;;;;;4963619;28;20467;-72
2023/03/17 04:14:29;;;;;;;13.00;5.93;;;;;;;;;;4978497;28;20463;-72
2023/03/17 04:16:55;;;;;;;15.90;6.17;;;;;;;;;;4906390;28;20474;-73
2023/03/17 04:19:22;;;;;;;18.30;7.40;;;;;;;;;;4964644;28;20467;-71
2023/03/17 04:21:50;;;;;;;25.10;7.97;;;;;;;;;;4962809;28;20486;-73
2023/03/17 04:24:20;;;;;;;18.93;7.67;;;;;;;;;;4933734;28;20810;-74
2023/03/17 04:26:46;;;;;;;16.73;6.73;;;;;;;;;;4965635;28;20471;-76
2023/03/17 04:29:14;;;;;;;20.50;6.27;;;;;;;;;;4978581;28;20462;-76
2023/03/17 04:31:52;;;;;;;12.40;5.97;;;;;;;;;;4965605;28;20462;-71
2023/03/17 04:38:42;;;;;;;10.27;5.50;;;;;;;;;;4900852;28;20467;-74
2023/03/17 04:42:00;;;;;;;13.10;6.40;;;;;;;;;;4776220;29;20493;-72
2023/03/17 04:44:48;;;;;;;12.47;6.50;;;;;;;;;;4881625;29;20503;-72
2023/03/17 04:48:04;;;;;;;12.50;6.37;;;;;;;;;;4835855;29;20471;-75
2023/03/17 04:50:53;;;;;;;14.73;7.30;;;;;;;;;;4843818;29;21299;-74
2023/03/17 04:54:05;;;;;;;12.23;7.23;;;;;;;;;;4843940;29;20448;-76
2023/03/17 04:57:05;;;;;;;16.90;8.17;;;;;;;;;;4806649;29;20459;-77
2023/03/17 05:03:18;;;;;;;;;;;;;;;;;;;;;
2023/03/17 05:09:40;;;;;;;16.97;8.27;;;;;;;;;;4934049;28;20474;-70
2023/03/17 05:13:35;;;;;;;16.87;9.00;;;;;;;;;;4901602;28;221034;-78
2023/03/17 05:16:54;;;;;;;18.00;7.77;;;;;;;;;;4935555;28;20492;-73
2023/03/17 05:23:51;;;;;;;16.37;9.57;;;;;;;;;;4920713;28;21019;-74
2023/03/17 05:26:20;;;;;;;22.50;10.33;;;;;;;;;;4940681;28;20466;-74
2023/03/17 05:28:47;;;;;;;21.40;10.63;;;;;;;;;;4971330;28;218967;-74
2023/03/17 05:31:14;;;;;;;28.50;12.93;;;;;;;;;;4945075;28;22488;-74
2023/03/17 05:33:42;;;;;;;28.03;13.93;;;;;;;;;;4953164;28;216470;-73
2023/03/17 05:36:09;;;;;;;28.77;14.67;;;;;;;;;;4959723;28;20482;-72
2023/03/17 05:38:35;;;;;;;28.03;15.23;;;;;;;;;;4977186;28;20513;-74
2023/03/17 05:41:03;;;;;;;35.03;17.07;;;;;;;;;;4976574;28;20530;-73
2023/03/17 05:43:30;;;;;;;27.90;14.77;;;;;;;;;;4956703;28;230533;-74
2023/03/17 05:45:56;;;;;;;34.47;15.30;;;;;;;;;;4978473;28;20699;-74
2023/03/17 05:48:24;;;;;;;36.53;16.87;;;;;;;;;;4978206;28;20961;-72
2023/03/17 05:50:50;;;;;;;46.43;18.97;;;;;;;;;;4961059;28;20458;-74
2023/03/17 05:53:17;;;;;;;45.90;19.77;;;;;;;;;;4977726;28;20524;-74
2023/03/17 05:55:44;;;;;;;54.93;21.23;;;;;;;;;;4964029;28;20482;-74
2023/03/17 05:58:11;;;;;;;58.80;22.70;;;;;;;;;;4984956;28;20478;-71
2023/03/17 06:00:38;;;;;;;61.23;22.53;;;;;;;;;;4952654;28;20464;-73
2023/03/17 06:03:23;;;;;;;36.93;16.77;;;;;;;;;;4967895;28;20446;-75
2023/03/17 06:05:50;;;;;;;30.77;16.17;;;;;;;;;;4979250;28;20583;-75
2023/03/17 06:08:34;;;;;;;34.40;14.20;;;;;;;;;;4983515;28;20880;-73
2023/03/17 06:11:01;;;;;;;27.17;14.90;;;;;;;;;;4989083;28;20513;-74
2023/03/17 06:13:28;;;;;;;32.07;14.57;;;;;;;;;;4982225;28;20549;-75
2023/03/17 06:15:56;;;;;;;29.57;14.53;;;;;;;;;;4955957;28;20462;-73
2023/03/17 06:18:23;;;;;;;29.43;15.43;;;;;;;;;;4965406;28;20467;-72
2023/03/17 06:20:50;;;;;;;30.80;15.93;;;;;;;;;;4971322;28;20471;-75
2023/03/17 06:23:17;;;;;;;36.30;16.80;;;;;;;;;;4957297;28;20479;-73
2023/03/17 06:25:44;;;;;;;32.03;16.73;;;;;;;;;;4963595;28;20463;-71
2023/03/17 06:28:12;;;;;;;27.93;15.13;;;;;;;;;;4981588;28;20474;-73
2023/03/17 06:30:38;;;;;;;27.27;14.83;;;;;;;;;;4967792;28;20237;-73
2023/03/17 06:33:06;;;;;;;27.30;14.90;;;;;;;;;;4973929;28;20454;-72
2023/03/17 06:35:33;;;;;;;24.30;14.03;;;;;;;;;;4982009;28;22367;-72
2023/03/17 06:38:01;;;;;;;26.33;14.50;;;;;;;;;;4979383;28;20575;-73
2023/03/17 06:40:27;;;;;;;26.57;15.03;;;;;;;;;;4935171;28;20446;-71
2023/03/17 06:42:55;;;;;;;31.70;15.37;;;;;;;;;;4963532;28;20455;-71
2023/03/17 06:45:22;;;;;;;30.20;15.80;;;;;;;;;;4983171;28;20466;-71
2023/03/17 06:47:48;;;;;;;29.40;15.53;;;;;;;;;;4980586;28;20310;-71
2023/03/17 06:50:15;;;;;;;26.57;13.27;;;;;;;;;;4964847;28;20985;-70
2023/03/17 06:52:42;;;;;;;27.30;14.37;;;;;;;;;;4978939;28;20493;-71
2023/03/17 06:55:12;;;;;;;27.23;14.47;;;;;;;;;;4980594;28;20946;-71
2023/03/17 06:57:38;;;;;;;25.67;13.63;;;;;;;;;;4981963;28;20462;-71
2023/03/17 07:00:08;;;;;;;27.77;13.63;;;;;;;;;;4947354;28;20546;-73
2023/03/17 07:02:35;;;;;;;24.60;14.20;;;;;;;;;;4966769;28;20505;-72
2023/03/17 07:05:02;;;;;;;29.10;15.53;;;;;;;;;;4982766;28;21056;-72
2023/03/17 07:07:30;;;;;;;23.70;14.60;;;;;;;;;;4975376;28;20907;-72
2023/03/17 07:09:57;;;;;;;28.23;15.90;;;;;;;;;;4978671;28;20500;-72
2023/03/17 07:12:24;;;;;;;29.73;15.57;;;;;;;;;;4982061;28;21017;-72
2023/03/17 07:14:50;;;;;;;27.93;15.63;;;;;;;;;;4961672;28;20466;-71
2023/03/17 07:17:18;;;;;;;25.70;14.57;;;;;;;;;;4984188;28;20556;-73
2023/03/17 07:19:45;;;;;;;26.07;14.53;;;;;;;;;;4982472;28;20506;-60
2023/03/17 07:22:11;;;;;;;23.20;14.00;;;;;;;;;;4968694;28;21048;-59
2023/03/17 07:24:40;;;;;;;26.57;13.90;;;;;;;;;;4982484;28;20534;-59
2023/03/17 07:27:07;;;;;;;24.83;14.77;;;;;;;;;;4970669;28;20455;-73
2023/03/17 07:29:34;;;;;;;23.30;14.07;;;;;;;;;;4983894;28;20518;-73
2023/03/17 07:32:04;;;;;;;29.60;14.60;;;;;;;;;;4983141;28;20479;-72
2023/03/17 07:34:31;;;;;;;23.87;13.60;;;;;;;;;;4985358;28;20463;-73
2023/03/17 07:36:57;;;;;;;24.63;14.63;;;;;;;;;;4983440;28;20514;-73
2023/03/17 07:39:24;;;;;;;26.73;14.30;;;;;;;;;;4985583;28;20800;-73
2023/03/17 07:41:53;;;;;;;26.27;13.47;;;;;;;;;;4983686;28;20250;-73
2023/03/17 07:44:21;;;;;;;23.37;14.17;;;;;;;;;;4983147;28;20466;-72
2023/03/17 07:47:06;;;;;;;22.17;13.23;;;;;;;;;;4984633;28;20462;-73
2023/03/17 07:49:33;;;;;;;25.83;14.23;;;;;;;;;;4983426;28;20463;-73
2023/03/17 07:52:07;;;;;;;23.43;13.30;;;;;;;;;;4965804;28;20945;-73
2023/03/17 07:54:35;;;;;;;21.27;12.77;;;;;;;;;;4983511;28;20447;-72
2023/03/17 07:57:02;;;;;;;21.60;12.20;;;;;;;;;;4981724;28;20769;-73
2023/03/17 07:59:29;;;;;;;20.70;12.80;;;;;;;;;;4983368;28;20899;-73
2023/03/17 08:01:56;;;;;;;23.63;12.73;;;;;;;;;;4984869;28;20519;-73
2023/03/17 08:04:23;;;;;;;24.23;13.27;;;;;;;;;;4980835;28;20924;-73
2023/03/17 08:06:51;;;;;;;22.67;12.60;;;;;;;;;;4967496;28;20542;-73
2023/03/17 08:09:17;;;;;;;24.07;13.93;;;;;;;;;;4967972;28;20224;-72
2023/03/17 08:11:44;;;;;;;22.30;13.23;;;;;;;;;;4984771;28;20521;-73
2023/03/17 08:14:12;;;;;;;21.53;13.07;;;;;;;;;;4982512;28;20466;-73
2023/03/17 08:16:38;;;;;;;21.30;12.80;;;;;;;;;;4984326;28;20474;-74
2023/03/17 08:19:06;;;;;;;27.97;14.13;;;;;;;;;;4982135;28;20530;-75
2023/03/17 08:21:33;;;;;;;24.30;13.87;;;;;;;;;;4983050;28;20974;-74
2023/03/17 08:24:00;;;;;;;21.37;14.30;;;;;;;;;;4977829;28;21025;-72
2023/03/17 08:26:27;;;;;;;24.33;14.27;;;;;;;;;;4925707;28;229933;-72
2023/03/17 08:28:54;;;;;;;20.80;12.60;;;;;;;;;;4966995;28;20455;-72
2023/03/17 08:31:21;;;;;;;26.60;14.43;;;;;;;;;;4962932;28;20220;-71
2023/03/17 08:33:49;;;;;;;25.07;13.50;;;;;;;;;;4962016;28;20295;-72
2023/03/17 08:36:17;;;;;;;24.63;13.63;;;;;;;;;;4963130;28;20474;-71
2023/03/17 08:38:44;;;;;;;27.67;13.67;;;;;;;;;;4979004;28;20458;-70
2023/03/17 08:41:13;;;;;;;19.00;11.50;;;;;;;;;;4978367;28;21550;-71
2023/03/17 08:43:41;;;;;;;21.33;12.50;;;;;;;;;;4970950;28;20473;-69
2023/03/17 08:46:11;;;;;;;20.53;11.40;;;;;;;;;;4961206;28;20259;-70
2023/03/17 08:48:38;;;;;;;18.87;11.70;;;;;;;;;;4968245;28;20482;-71
2023/03/17 08:51:05;;;;;;;18.67;10.80;;;;;;;;;;4966726;28;20242;-70
2023/03/17 08:53:33;;;;;;;18.60;11.60;;;;;;;;;;4942587;28;20447;-77
2023/03/17 08:56:01;;;;;;;19.70;11.50;;;;;;;;;;4942645;28;219879;-75
2023/03/17 08:58:28;;;;;;;18.40;11.27;;;;;;;;;;4953086;28;20305;-77
2023/03/17 09:00:58;;;;;;;20.07;11.67;;;;;;;;;;4980274;28;20236;-77
2023/03/17 09:03:25;;;;;;;20.07;12.37;;;;;;;;;;4933610;28;20302;-73
2023/03/17 09:05:53;;;;;;;18.90;10.77;;;;;;;;;;4980270;28;20714;-77
2023/03/17 09:08:20;;;;;;;18.83;10.87;;;;;;;;;;4962977;28;20251;-72
2023/03/17 09:10:47;;;;;;;19.77;11.43;;;;;;;;;;4964562;28;20255;-73
2023/03/17 09:13:16;;;;;;;19.93;11.27;;;;;;;;;;4980009;28;20243;-73
2023/03/17 09:15:43;;;;;;;15.80;9.77;;;;;;;;;;4966970;28;20232;-75
2023/03/17 09:18:10;;;;;;;18.20;10.27;;;;;;;;;;4951254;28;20247;-74
2023/03/17 09:20:37;;;;;;;16.30;9.60;;;;;;;;;;4962130;28;20212;-72
2023/03/17 09:23:07;;;;;;;15.10;9.80;;;;;;;;;;4934637;28;20278;-74
2023/03/17 09:25:36;;;;;;;17.90;8.93;;;;;;;;;;4979809;28;20595;-71
2023/03/17 09:28:03;;;;;;;18.03;9.80;;;;;;;;;;4970772;28;20243;-74
2023/03/17 09:30:31;;;;;;;15.60;9.00;;;;;;;;;;4967451;28;20599;-75
2023/03/17 09:32:59;;;;;;;14.90;9.50;;;;;;;;;;4979404;28;20467;-76
2023/03/17 09:35:30;;;;;;;17.50;9.60;;;;;;;;;;4965481;28;20366;-76
2023/03/17 09:37:57;;;;;;;15.30;9.17;;;;;;;;;;4959955;28;221471;-74
2023/03/17 09:40:31;;;;;;;13.67;8.77;;;;;;;;;;4956176;28;218305;-74
2023/03/17 09:43:01;;;;;;;16.33;9.30;;;;;;;;;;4969390;28;20234;-71
2023/03/17 09:45:40;;;;;;;17.23;10.10;;;;;;;;;;4985739;28;20302;-70
2023/03/17 09:48:18;;;;;;;18.93;10.87;;;;;;;;;;4953135;28;20240;-70
2023/03/17 09:50:46;;;;;;;15.87;9.17;;;;;;;;;;4982157;28;20682;-71
2023/03/17 09:53:20;;;;;;;13.93;7.93;;;;;;;;;;4979395;28;20252;-74
2023/03/17 09:55:49;;;;;;;14.03;8.23;;;;;;;;;;4979982;28;20235;-77
2023/03/17 09:58:18;;;;;;;15.57;8.70;;;;;;;;;;4985826;28;20263;-73
2023/03/17 10:00:45;;;;;;;13.53;8.80;;;;;;;;;;4963436;28;20242;-74
2023/03/17 10:03:12;;;;;;;12.03;7.73;;;;;;;;;;4959368;28;20232;-73
2023/03/17 10:05:40;;;;;;;10.13;6.83;;;;;;;;;;4926843;28;20233;-73
2023/03/17 10:08:23;;;;;;;12.90;8.10;;;;;;;;;;4968065;28;20938;-70
2023/03/17 10:11:15;;;;;;;16.60;8.27;;;;;;;;;;4939320;28;20310;-73
2023/03/17 10:13:59;;;;;;;13.33;7.77;;;;;;;;;;4966131;28;20228;-70
2023/03/17 10:16:38;;;;;;;14.63;7.33;;;;;;;;;;4968670;28;20231;-72
2023/03/17 10:19:09;;;;;;;11.73;7.00;;;;;;;;;;4984835;28;20245;-72
2023/03/17 10:21:37;;;;;;;14.77;7.40;;;;;;;;;;4982716;28;20289;-73
2023/03/17 10:24:04;;;;;;;13.60;8.03;;;;;;;;;;4947795;28;229550;-74
2023/03/17 10:26:38;;;;;;;13.63;7.80;;;;;;;;;;4985170;28;20285;-73
2023/03/17 10:29:11;;;;;;;14.47;7.97;;;;;;;;;;4970291;28;20253;-70
2023/03/17 10:31:38;;;;;;;14.37;7.13;;;;;;;;;;4983055;28;20228;-71
2023/03/17 10:34:13;;;;;;;14.30;8.07;;;;;;;;;;4937219;28;21351;-71
2023/03/17 10:36:45;;;;;;;11.40;7.17;;;;;;;;;;4955962;28;20227;-70
2023/03/17 10:39:14;;;;;;;10.27;5.70;;;;;;;;;;4939983;28;20235;-70
2023/03/17 10:41:47;;;;;;;12.17;7.03;;;;;;;;;;4964692;28;20736;-70
2023/03/17 10:44:21;;;;;;;10.80;6.27;;;;;;;;;;4937506;28;20227;-70
2023/03/17 10:46:51;;;;;;;11.13;5.47;;;;;;;;;;4954602;28;20330;-69
2023/03/17 10:49:21;;;;;;;10.70;5.93;;;;;;;;;;4982800;28;20315;-70
2023/03/17 10:51:49;;;;;;;13.07;6.73;;;;;;;;;;4982139;28;20232;-69
2023/03/17 10:54:16;;;;;;;10.60;6.10;;;;;;;;;;4982770;28;20239;-70
2023/03/17 10:56:45;;;;;;;11.87;6.70;;;;;;;;;;4962043;28;20688;-69
2023/03/17 10:59:18;;;;;;;11.57;6.47;;;;;;;;;;4951822;28;20223;-69
2023/03/17 11:01:47;;;;;;;11.70;6.13;;;;;;;;;;4981072;28;20248;-69
2023/03/17 11:04:20;;;;;;;13.40;7.17;;;;;;;;;;4979395;28;20228;-70
2023/03/17 11:06:48;;;;;;;12.20;6.53;;;;;;;;;;4982043;28;20232;-70
2023/03/17 11:09:17;;;;;;;13.53;6.20;;;;;;;;;;4968086;28;20282;-69
2023/03/17 11:11:45;;;;;;;11.77;6.40;;;;;;;;;;4980398;28;20223;-70
2023/03/17 11:14:12;;;;;;;8.50;5.60;;;;;;;;;;4964678;28;20235;-71
2023/03/17 11:16:46;;;;;;;14.20;6.20;;;;;;;;;;4966459;28;20370;-70
2023/03/17 11:19:14;;;;;;;12.70;5.63;;;;;;;;;;4961294;28;20224;-70
2023/03/17 11:21:46;;;;;;;11.47;6.43;;;;;;;;;;4961515;28;20239;-70
2023/03/17 11:24:13;;;;;;;8.97;5.40;;;;;;;;;;4945054;28;20270;-69
2023/03/17 11:26:46;;;;;;;9.33;5.60;;;;;;;;;;4948178;28;20874;-71
2023/03/17 11:29:21;;;;;;;12.43;6.03;;;;;;;;;;4935620;28;20221;-72
2023/03/17 11:32:11;;;;;;;14.30;6.87;;;;;;;;;;4949052;28;20224;-71
2023/03/17 11:34:41;;;;;;;11.97;5.87;;;;;;;;;;4913836;28;20228;-71
2023/03/17 11:37:25;;;;;;;11.77;6.17;;;;;;;;;;4941638;28;20225;-71
2023/03/17 11:40:04;;;;;;;14.50;7.80;;;;;;;;;;4944711;28;20232;-70
2023/03/17 11:42:35;;;;;;;12.53;6.57;;;;;;;;;;4962742;28;20456;-70
2023/03/17 11:45:08;;;;;;;11.00;5.17;;;;;;;;;;4932682;28;20231;-73
2023/03/17 11:47:51;;;;;;;11.63;5.60;;;;;;;;;;4904568;28;20240;-74
2023/03/17 11:50:27;;;;;;;9.33;5.10;;;;;;;;;;4917479;28;694139;-76
2023/03/17 11:53:14;;;;;;;6.00;3.40;;;;;;;;;;4876623;28;20703;-79
2023/03/17 11:55:44;;;;;;;10.10;5.60;;;;;;;;;;4959548;28;20237;-75
2023/03/17 11:58:30;;;;;;;10.00;5.20;;;;;;;;;;4927382;28;20234;-73
2023/03/17 12:00:57;;;;;;;11.27;5.53;;;;;;;;;;4932049;28;223653;-77
2023/03/17 12:03:37;;;;;;;9.93;5.10;;;;;;;;;;4963080;28;20692;-73
2023/03/17 12:06:10;;;;;;;10.87;4.67;;;;;;;;;;4946945;28;20319;-73
2023/03/17 12:08:38;;;;;;;10.53;5.53;;;;;;;;;;4963322;28;20318;-71
2023/03/17 12:11:06;;;;;;;9.63;4.60;;;;;;;;;;4957569;28;217117;-74
2023/03/17 12:13:35;;;;;;;10.03;4.73;;;;;;;;;;4948502;28;226892;-75
2023/03/17 12:16:10;;;;;;;12.30;4.57;;;;;;;;;;4962746;28;20228;-73
2023/03/17 12:18:41;;;;;;;8.93;4.60;;;;;;;;;;4977225;28;20285;-74
2023/03/17 12:21:20;;;;;;;9.33;5.43;;;;;;;;;;4982281;28;20232;-74
2023/03/17 12:23:57;;;;;;;17.07;7.40;;;;;;;;;;4981118;28;20404;-74
2023/03/17 12:26:42;;;;;;;16.40;7.13;;;;;;;;;;4965124;28;20235;-74
2023/03/17 12:29:14;;;;;;;20.97;9.30;;;;;;;;;;4983754;28;20239;-75
2023/03/17 12:32:04;;;;;;;13.50;7.10;;;;;;;;;;4899712;28;20219;-73
2023/03/17 12:34:50;;;;;;;17.43;7.97;;;;;;;;;;4959488;28;20274;-73
2023/03/17 12:37:17;;;;;;;18.73;8.03;;;;;;;;;;4955534;28;20315;-73
2023/03/17 12:40:06;;;;;;;18.27;8.13;;;;;;;;;;4965259;28;20224;-74
2023/03/17 12:42:41;;;;;;;15.00;7.57;;;;;;;;;;4965274;28;20247;-74
2023/03/17 12:45:26;;;;;;;13.67;6.47;;;;;;;;;;4963953;28;20231;-73
2023/03/17 12:48:12;;;;;;;10.57;4.90;;;;;;;;;;4968924;28;222047;-73
2023/03/17 12:50:42;;;;;;;13.53;7.17;;;;;;;;;;4921762;28;20234;-73
2023/03/17 12:53:21;;;;;;;15.27;7.70;;;;;;;;;;4936459;28;221020;-73
2023/03/17 12:55:49;;;;;;;12.53;6.40;;;;;;;;;;4939496;28;20231;-74
2023/03/17 12:58:21;;;;;;;16.70;7.67;;;;;;;;;;4957175;28;217674;-74
2023/03/17 13:01:00;;;;;;;14.67;7.83;;;;;;;;;;4981198;28;20231;-74
2023/03/17 13:03:29;;;;;;;12.87;7.07;;;;;;;;;;4949483;28;214628;-74
2023/03/17 13:06:18;;;;;;;11.57;6.33;;;;;;;;;;4974571;28;217794;-73
2023/03/17 13:08:46;;;;;;;18.50;8.90;;;;;;;;;;4886527;28;637706;-73
2023/03/17 13:11:44;;;;;;;17.90;9.10;;;;;;;;;;4910778;28;218490;-74
2023/03/17 13:14:15;;;;;;;12.73;7.00;;;;;;;;;;4974107;28;20212;-75
2023/03/17 13:17:03;;;;;;;11.53;6.13;;;;;;;;;;4951844;28;20655;-74
2023/03/17 13:19:31;;;;;;;11.23;6.10;;;;;;;;;;4954567;28;220016;-75
2023/03/17 13:22:04;;;;;;;9.27;5.10;;;;;;;;;;4955051;28;20219;-75
2023/03/17 13:24:36;;;;;;;13.27;6.67;;;;;;;;;;4969220;28;20227;-75
2023/03/17 13:27:08;;;;;;;13.60;5.80;;;;;;;;;;4949443;28;20231;-74
2023/03/17 13:29:35;;;;;;;16.73;6.70;;;;;;;;;;4933377;28;219165;-74
2023/03/17 13:32:15;;;;;;;11.57;6.43;;;;;;;;;;4928407;28;219697;-75
2023/03/17 13:34:49;;;;;;;12.00;6.40;;;;;;;;;;4981750;28;20687;-75
2023/03/17 13:37:25;;;;;;;11.90;6.20;;;;;;;;;;4964608;28;220021;-75
2023/03/17 13:40:05;;;;;;;11.23;5.93;;;;;;;;;;4933543;28;221590;-75
2023/03/17 13:43:08;;;;;;;12.63;5.43;;;;;;;;;;4962257;28;220761;-74
2023/03/17 13:45:39;;;;;;;13.97;6.93;;;;;;;;;;4949711;28;20227;-75
2023/03/17 13:48:28;;;;;;;15.00;6.63;;;;;;;;;;4971764;28;20232;-74
2023/03/17 13:51:00;;;;;;;10.97;5.87;;;;;;;;;;4949327;28;216662;-74
2023/03/17 13:53:28;;;;;;;13.43;7.07;;;;;;;;;;4964384;28;216563;-75
2023/03/17 13:56:03;;;;;;;15.77;7.80;;;;;;;;;;4965879;28;20223;-74
2023/03/17 13:58:32;;;;;;;11.43;7.10;;;;;;;;;;4966327;28;20334;-74
2023/03/17 14:01:01;;;;;;;16.27;7.33;;;;;;;;;;4933263;28;218549;-74
2023/03/17 14:03:36;;;;;;;13.47;7.87;;;;;;;;;;4928357;28;223334;-75
2023/03/17 14:06:05;;;;;;;14.23;7.20;;;;;;;;;;4936069;28;220008;-73
2023/03/17 14:08:33;;;;;;;12.70;7.70;;;;;;;;;;4952366;28;20714;-73
2023/03/17 14:11:14;;;;;;;11.73;7.07;;;;;;;;;;4917632;28;218539;-75
2023/03/17 14:13:56;;;;;;;12.30;7.80;;;;;;;;;;4953532;28;20224;-75
2023/03/17 14:16:23;;;;;;;20.93;9.87;;;;;;;;;;4973845;28;20711;-75
2023/03/17 14:18:54;;;;;;;16.10;9.00;;;;;;;;;;4984531;28;20232;-77
2023/03/17 14:21:29;;;;;;;25.87;11.30;;;;;;;;;;4928129;28;20228;-74
2023/03/17 14:24:00;;;;;;;17.90;9.47;;;;;;;;;;4977053;28;20674;-72
2023/03/17 14:26:28;;;;;;;23.07;10.20;;;;;;;;;;4957143;28;20642;-74
2023/03/17 14:29:21;;;;;;;24.47;11.57;;;;;;;;;;4985622;28;23667;-73
2023/03/17 14:31:48;;;;;;;21.97;10.40;;;;;;;;;;4985223;28;20223;-73
2023/03/17 14:34:15;;;;;;;19.87;10.50;;;;;;;;;;4983219;28;20232;-73
2023/03/17 14:36:42;;;;;;;18.93;10.60;;;;;;;;;;4987248;28;20231;-73
2023/03/17 14:39:18;;;;;;;14.63;7.43;;;;;;;;;;4984651;28;20230;-74
2023/03/17 14:41:45;;;;;;;16.57;8.23;;;;;;;;;;4979571;28;20246;-73
2023/03/17 14:44:11;;;;;;;13.47;7.00;;;;;;;;;;4986242;28;20240;-74
2023/03/17 14:46:39;;;;;;;13.37;6.93;;;;;;;;;;4984226;28;20227;-77
2023/03/17 14:49:16;;;;;;;10.73;6.50;;;;;;;;;;4990770;28;20235;-73
2023/03/17 14:51:43;;;;;;;15.13;7.13;;;;;;;;;;4972398;28;20266;-73
2023/03/17 14:54:14;;;;;;;16.53;7.60;;;;;;;;;;4984892;28;20227;-73
2023/03/17 14:56:41;;;;;;;13.07;6.87;;;;;;;;;;4984703;28;20303;-72
2023/03/17 14:59:11;;;;;;;12.23;6.10;;;;;;;;;;4982352;28;20311;-72
2023/03/17 15:01:41;;;;;;;12.57;6.13;;;;;;;;;;4986156;28;20863;-72
2023/03/17 15:04:11;;;;;;;10.77;5.57;;;;;;;;;;4982732;28;20255;-72
2023/03/17 15:06:48;;;;;;;12.83;6.13;;;;;;;;;;4983775;28;24282;-72
2023/03/17 15:09:19;;;;;;;10.97;5.03;;;;;;;;;;4983749;28;20225;-72
2023/03/17 15:11:46;;;;;;;10.57;5.50;;;;;;;;;;4983577;28;20235;-72
2023/03/17 15:14:14;;;;;;;9.83;5.03;;;;;;;;;;4985468;28;20238;-72
2023/03/17 15:16:48;;;;;;;8.90;4.93;;;;;;;;;;4976438;28;20718;-71
2023/03/17 15:19:20;;;;;;;11.90;5.87;;;;;;;;;;4957108;28;20770;-70
2023/03/17 15:21:47;;;;;;;12.30;5.40;;;;;;;;;;4978767;28;20231;-72
2023/03/17 15:24:17;;;;;;;11.37;5.67;;;;;;;;;;4971553;28;20240;-72
2023/03/17 15:26:43;;;;;;;11.83;5.50;;;;;;;;;;4982268;28;20231;-72
2023/03/17 15:29:10;;;;;;;13.67;5.93;;;;;;;;;;4984582;28;20539;-72
2023/03/17 15:31:37;;;;;;;11.50;5.20;;;;;;;;;;4964855;28;20983;-72
2023/03/17 15:34:04;;;;;;;11.47;5.40;;;;;;;;;;4984985;28;20230;-72
2023/03/17 15:36:31;;;;;;;10.00;5.60;;;;;;;;;;4983119;28;20278;-73